Time;durP1;ratioP1;P1;durP2;ratioP2;P2;SDS_P1;SDS_P2;PMS_P1;PMS_P2;Temp;Humidity;BMP_temperature;BMP_pressure;BME280_temperature;BME280_humidity;BME280_pressure;Samples;Min_cycle;Max_cycle;Signal;HPM_P1;HPM_P2
2021/04/14 04:45:41;;;;;;;7.68;3.03;;;2.30;94.70;;;;;;6160816;23;20096;-95
2021/04/14 04:48:27;;;;;;;9.57;4.32;;;2.30;94.70;;;;;;6074032;23;20363;-94
2021/04/14 04:54:14;;;;;;;12.40;5.57;;;2.40;94.50;;;;;;6056361;23;20014;-94
2021/04/14 05:00:36;;;;;;;13.40;5.65;;;2.50;94.60;;;;;;5954165;24;20277;-93
2021/04/14 05:07:10;;;;;;;8.95;4.18;;;2.60;94.60;;;;;;6043771;23;20072;-94
2021/04/14 05:17:01;;;;;;;;;;;;;;;;;;;;;
2021/04/14 05:20:14;;;;;;;;;;;;;;;;;;;;;
2021/04/14 05:23:28;;;;;;;;;;;;;;;;;;;;;
2021/04/14 05:29:36;;;;;;;7.70;3.42;;;2.90;94.50;;;;;;6015598;23;20015;-95
2021/04/14 05:49:18;;;;;;;7.15;3.45;;;3.10;94.20;;;;;;6162474;23;20036;-95
2021/04/14 05:59:01;;;;;;;8.50;3.33;;;3.40;93.80;;;;;;6163072;23;20056;-96
2021/04/14 07:33:02;;;;;;;8.85;2.72;;;5.80;89.80;;;;;;6167823;23;20032;-96
2021/04/14 07:46:15;;;;;;;10.63;2.13;;;6.60;86.90;;;;;;6163935;23;20048;-95
2021/04/14 07:48:45;;;;;;;11.00;2.13;;;6.80;85.30;;;;;;6140603;23;20006;-96
2021/04/14 07:51:18;;;;;;;10.82;3.05;;;6.90;84.10;;;;;;6139157;23;20006;-96
2021/04/14 08:01:20;;;;;;;9.30;2.42;;;7.00;83.10;;;;;;6173474;23;20008;-94
2021/04/14 08:11:17;;;;;;;5.65;2.42;;;6.90;83.70;;;;;;6166376;23;20017;-96
2021/04/14 08:27:50;;;;;;;;;;;;;;;;;;;;;
2021/04/14 08:37:27;;;;;;;4.20;2.03;;;7.60;79.30;;;;;;5962624;24;20052;-96
2021/04/14 09:21:09;;;;;;;3.92;1.55;;;8.00;76.50;;;;;;6074391;23;20154;-94
2021/04/14 09:23:38;;;;;;;3.45;1.52;;;7.90;77.60;;;;;;6049008;23;20035;-95
2021/04/14 09:30:10;;;;;;;2.03;1.40;;;7.90;74.90;;;;;;6015473;23;20018;-95
2021/04/14 09:36:32;;;;;;;5.60;1.67;;;8.40;75.20;;;;;;6007748;23;20035;-93
2021/04/14 09:49:23;;;;;;;9.57;1.75;;;8.70;72.20;;;;;;6045815;23;20231;-95
2021/04/14 10:02:47;;;;;;;3.03;1.48;;;8.50;70.80;;;;;;6045633;23;20423;-95
2021/04/14 10:12:29;;;;;;;4.22;1.75;;;9.30;69.80;;;;;;6165018;23;20013;-94
2021/04/14 10:25:45;;;;;;;4.78;1.48;;;9.10;68.20;;;;;;6164835;23;20017;-96
2021/04/14 10:35:34;;;;;;;;;;;;;;;;;;;;;
2021/04/14 10:38:39;;;;;;;4.70;1.35;;;8.60;69.90;;;;;;6162749;23;20029;-95
2021/04/14 10:48:40;;;;;;;9.77;1.77;;;8.50;69.30;;;;;;6019326;23;20045;-94
2021/04/14 10:51:39;;;;;;;3.47;1.65;;;8.70;71.40;;;;;;6140944;23;20005;-94
2021/04/14 10:54:49;;;;;;;8.70;1.70;;;9.00;69.90;;;;;;6135644;23;20001;-94
2021/04/14 10:57:37;;;;;;;9.05;1.73;;;9.50;68.00;;;;;;6132941;23;20002;-94
2021/04/14 11:00:12;;;;;;;2.72;1.38;;;9.90;68.50;;;;;;6137491;23;20008;-95
2021/04/14 11:06:42;;;;;;;4.05;1.50;;;10.00;66.40;;;;;;6150812;23;20373;-94
2021/04/14 11:19:43;;;;;;;3.33;1.48;;;9.80;66.30;;;;;;6163227;23;20004;-93
2021/04/14 11:25:41;;;;;;;4.32;1.10;;;9.80;63.50;;;;;;6045732;23;20015;-94
2021/04/14 11:28:17;;;;;;;2.70;1.17;;;9.70;63.00;;;;;;6134545;23;20014;-95
2021/04/14 11:30:54;;;;;;;3.60;1.33;;;9.80;61.80;;;;;;6137079;23;20579;-93
2021/04/14 11:33:52;;;;;;;3.20;1.35;;;10.00;59.60;;;;;;6137016;23;20360;-93
2021/04/14 11:36:30;;;;;;;2.65;1.45;;;10.30;60.50;;;;;;6073965;23;20063;-94
2021/04/14 11:39:18;;;;;;;4.68;1.20;;;10.60;63.20;;;;;;6137209;23;20238;-93
2021/04/14 12:14:28;;;;;;;4.72;1.30;;;9.90;60.00;;;;;;6044610;23;20075;-96
2021/04/14 12:16:57;;;;;;;1.95;0.90;;;9.90;59.60;;;;;;6100103;23;20028;-93
2021/04/14 12:19:25;;;;;;;2.22;1.17;;;10.00;61.20;;;;;;6136786;23;20005;-91
2021/04/14 12:21:51;;;;;;;4.15;0.88;;;10.20;59.60;;;;;;6136456;23;20001;-92
2021/04/14 12:24:17;;;;;;;5.20;1.52;;;10.50;58.20;;;;;;6136660;23;20036;-92
2021/04/14 12:26:42;;;;;;;4.05;1.30;;;10.80;58.70;;;;;;6136722;23;20001;-92
2021/04/14 12:29:08;;;;;;;4.47;1.17;;;11.20;56.10;;;;;;6136666;23;20076;-91
2021/04/14 12:31:38;;;;;;;7.30;1.30;;;11.50;56.70;;;;;;6136688;23;20013;-92
2021/04/14 12:34:05;;;;;;;3.55;1.38;;;11.60;56.00;;;;;;6138414;23;20009;-93
2021/04/14 12:36:43;;;;;;;5.90;0.82;;;11.70;53.90;;;;;;6137097;23;20006;-93
2021/04/14 12:39:48;;;;;;;1.73;1.10;;;11.60;55.00;;;;;;6136769;23;20007;-93
2021/04/14 12:42:19;;;;;;;1.88;1.10;;;11.40;55.30;;;;;;6136902;23;20083;-94
2021/04/14 12:48:14;;;;;;;2.15;0.60;;;11.50;54.20;;;;;;6138975;23;20084;-92
2021/04/14 12:50:40;;;;;;;4.60;1.27;;;11.50;56.80;;;;;;6135743;23;20396;-93
2021/04/14 12:53:08;;;;;;;1.77;0.82;;;11.70;55.00;;;;;;6136316;23;19997;-93
2021/04/14 12:55:57;;;;;;;1.95;0.90;;;11.80;51.70;;;;;;6136110;23;20052;-93
2021/04/14 13:12:37;;;;;;;4.05;0.80;;;11.40;55.10;;;;;;6165312;23;20039;-95
2021/04/14 13:15:05;;;;;;;7.45;1.30;;;11.40;54.10;;;;;;6139724;23;20012;-93
2021/04/14 13:28:13;;;;;;;6.32;0.68;;;11.60;53.40;;;;;;6104058;23;20127;-95
2021/04/14 13:31:33;;;;;;;4.70;0.98;;;11.70;51.60;;;;;;6078732;23;20006;-94
2021/04/14 18:00:39;;;;;;;11.25;5.57;;;8.60;65.80;;;;;;6118528;23;21217;-94
2021/04/14 18:03:07;;;;;;;8.02;4.07;;;8.60;65.90;;;;;;6137696;23;20408;-89
2021/04/14 18:05:34;;;;;;;5.82;3.75;;;8.60;66.10;;;;;;6137743;23;20009;-91
2021/04/14 18:08:13;;;;;;;4.00;2.80;;;8.50;66.30;;;;;;6162567;23;20400;-93
2021/04/14 18:10:56;;;;;;;2.55;1.13;;;8.50;66.00;;;;;;6163493;23;20032;-92
2021/04/14 18:13:21;;;;;;;;;;;8.40;65.40;;;;;;6162711;23;20008;-90
2021/04/14 18:15:47;;;;;;;3.90;0.98;;;8.40;65.20;;;;;;6135699;23;20156;-91
2021/04/14 18:18:26;;;;;;;4.38;1.20;;;8.40;65.20;;;;;;6137744;23;20008;-90
2021/04/14 18:20:52;;;;;;;3.78;1.35;;;8.40;65.40;;;;;;6137415;23;20013;-90
2021/04/14 18:23:20;;;;;;;3.45;1.42;;;8.40;66.10;;;;;;6137763;23;20005;-93
2021/04/14 18:25:46;;;;;;;2.03;1.42;;;8.30;66.20;;;;;;6137715;23;20005;-91
2021/04/14 18:28:41;;;;;;;1.25;1.15;;;8.30;67.50;;;;;;6137041;23;20154;-93
2021/04/14 18:31:15;;;;;;;3.90;1.73;;;8.30;68.60;;;;;;6137863;23;20012;-90
2021/04/14 18:33:41;;;;;;;6.90;1.27;;;8.20;70.10;;;;;;6137525;23;20271;-91
2021/04/14 18:36:24;;;;;;;6.07;1.05;;;8.10;70.10;;;;;;6137362;23;20019;-92
2021/04/14 18:42:29;;;;;;;1.40;1.10;;;8.00;70.60;;;;;;6162500;23;19986;-94
2021/04/14 18:44:55;;;;;;;3.83;1.40;;;8.00;69.90;;;;;;6136534;23;20442;-92
2021/04/14 18:47:54;;;;;;;3.65;1.05;;;7.90;70.20;;;;;;6137599;23;20001;-94
2021/04/14 18:51:20;;;;;;;;;;;;;;;;;;;;;
2021/04/14 18:53:46;;;;;;;2.42;1.30;;;7.80;70.10;;;;;;6164017;23;20017;-95
2021/04/14 18:56:14;;;;;;;3.70;1.00;;;7.80;70.20;;;;;;6136424;23;20009;-93
2021/04/14 18:59:20;;;;;;;1.98;1.20;;;7.70;71.00;;;;;;6137410;23;20006;-94
2021/04/14 19:01:49;;;;;;;4.18;3.47;;;7.60;71.10;;;;;;6137573;23;20005;-94
2021/04/14 19:04:15;;;;;;;3.72;1.60;;;7.70;71.30;;;;;;6135390;23;20100;-94
2021/04/14 19:06:41;;;;;;;2.83;1.52;;;7.60;71.20;;;;;;6138769;23;20057;-90
2021/04/14 19:09:09;;;;;;;6.13;1.77;;;7.70;71.00;;;;;;6140065;23;20119;-92
2021/04/14 19:11:35;;;;;;;5.20;2.45;;;7.60;70.90;;;;;;6137243;23;20013;-93
2021/04/14 19:14:08;;;;;;;3.53;1.85;;;7.60;71.00;;;;;;6137159;23;20072;-92
2021/04/14 19:19:38;;;;;;;4.28;2.65;;;7.50;71.20;;;;;;6162273;23;20061;-92
2021/04/14 19:22:38;;;;;;;5.25;2.53;;;7.50;71.20;;;;;;6137795;23;20040;-92
2021/04/14 19:25:05;;;;;;;2.95;1.80;;;7.50;71.20;;;;;;6137395;23;20006;-93
2021/04/14 19:27:33;;;;;;;3.42;1.58;;;7.50;71.10;;;;;;6136974;23;20011;-94
2021/04/14 19:30:02;;;;;;;5.57;1.75;;;7.40;71.20;;;;;;6137941;23;20009;-93
2021/04/14 19:32:30;;;;;;;2.60;2.30;;;7.30;71.50;;;;;;6137476;23;20687;-93
2021/04/14 19:35:04;;;;;;;2.75;1.50;;;7.30;71.80;;;;;;6137760;23;20025;-92
2021/04/14 19:37:38;;;;;;;1.42;1.30;;;7.20;71.20;;;;;;6137856;23;20005;-92
2021/04/14 19:40:06;;;;;;;1.70;1.58;;;7.10;71.00;;;;;;6137106;23;20009;-92
2021/04/14 19:42:32;;;;;;;5.30;1.52;;;7.00;71.40;;;;;;6137383;23;20385;-93
2021/04/14 19:44:58;;;;;;;2.25;1.50;;;6.90;71.50;;;;;;6136488;23;20009;-92
2021/04/14 19:47:51;;;;;;;1.83;1.58;;;6.80;71.90;;;;;;6137040;23;20005;-93
2021/04/14 19:50:17;;;;;;;2.53;1.80;;;6.80;72.40;;;;;;6137417;23;20033;-94
2021/04/14 19:52:43;;;;;;;2.28;1.27;;;6.80;73.00;;;;;;6137093;23;20001;-92
2021/04/14 19:55:10;;;;;;;1.83;1.65;;;6.70;73.90;;;;;;6137439;23;20056;-93
2021/04/14 19:57:36;;;;;;;2.38;1.17;;;6.60;74.90;;;;;;6135148;23;20040;-92
2021/04/14 20:00:04;;;;;;;3.55;1.63;;;6.60;75.50;;;;;;6137353;23;20029;-93
2021/04/14 20:02:38;;;;;;;3.95;1.60;;;6.60;76.00;;;;;;6136808;23;20416;-93
2021/04/14 20:08:35;;;;;;;2.45;1.88;;;6.50;77.00;;;;;;6083647;23;20022;-93
2021/04/14 20:11:17;;;;;;;2.05;1.60;;;6.50;77.80;;;;;;6137847;23;20009;-94
2021/04/14 20:13:50;;;;;;;1.80;1.70;;;6.40;78.40;;;;;;6138250;23;20009;-94
2021/04/14 20:16:35;;;;;;;2.47;1.67;;;6.40;78.90;;;;;;6134716;23;20006;-93
2021/04/14 20:29:25;;;;;;;2.30;1.88;;;6.20;80.90;;;;;;6143212;23;20080;-92
2021/04/14 20:32:30;;;;;;;3.72;1.67;;;6.20;81.30;;;;;;6159118;23;20056;-92
2021/04/14 20:34:56;;;;;;;4.10;1.88;;;6.20;81.70;;;;;;6137136;23;20044;-92
2021/04/14 20:37:36;;;;;;;7.15;2.85;;;6.20;81.70;;;;;;6136094;23;20333;-91
2021/04/14 20:40:42;;;;;;;5.85;2.30;;;6.20;82.20;;;;;;6136959;23;20203;-93
2021/04/14 20:43:31;;;;;;;3.47;2.05;;;6.20;82.30;;;;;;6137172;23;20001;-93
2021/04/14 20:46:03;;;;;;;6.00;2.67;;;6.20;82.50;;;;;;6133567;23;20076;-93
2021/04/14 20:49:02;;;;;;;2.42;2.00;;;6.20;82.60;;;;;;6138265;23;20006;-92
2021/04/14 20:51:31;;;;;;;4.28;2.58;;;6.10;82.70;;;;;;6136618;23;20009;-93
2021/04/14 20:54:22;;;;;;;;;;;;;;;;;;;;;
2021/04/14 21:00:11;;;;;;;3.22;2.85;;;6.00;83.50;;;;;;6069186;23;20040;-90
2021/04/14 21:02:40;;;;;;;2.67;2.47;;;6.00;83.80;;;;;;6138383;23;20253;-92
2021/04/14 21:05:44;;;;;;;4.07;2.55;;;6.00;83.80;;;;;;6136191;23;20009;-93
2021/04/14 21:12:09;;;;;;;3.13;2.42;;;5.90;84.20;;;;;;6044237;23;20014;-93
2021/04/14 21:14:38;;;;;;;4.72;2.58;;;5.90;84.40;;;;;;6019879;23;20083;-93
2021/04/14 21:17:04;;;;;;;3.17;2.20;;;5.80;84.60;;;;;;6039672;23;20056;-93
2021/04/14 21:19:33;;;;;;;3.22;2.28;;;5.80;84.70;;;;;;6137314;23;19998;-93
2021/04/14 21:22:08;;;;;;;4.30;2.85;;;5.80;85.00;;;;;;6136910;23;20294;-93
2021/04/14 21:24:45;;;;;;;5.82;2.70;;;5.80;85.00;;;;;;6136807;23;20012;-93
2021/04/14 21:27:26;;;;;;;2.90;2.38;;;5.80;85.30;;;;;;6134418;23;20425;-94
2021/04/14 21:30:13;;;;;;;;;;;;;;;;;;;;;
2021/04/14 21:32:42;;;;;;;9.65;2.70;;;5.70;85.30;;;;;;6164019;23;20341;-94
2021/04/14 21:35:16;;;;;;;3.17;2.15;;;5.70;85.30;;;;;;6137262;23;20010;-94
2021/04/14 21:38:16;;;;;;;5.25;2.33;;;5.70;85.20;;;;;;6137808;23;20025;-94
2021/04/14 21:41:22;;;;;;;5.97;2.50;;;5.80;85.20;;;;;;6104090;23;20007;-93
2021/04/14 21:44:50;;;;;;;2.67;2.17;;;5.80;85.30;;;;;;6134369;23;20009;-92
2021/04/14 21:47:39;;;;;;;7.40;2.33;;;5.80;85.70;;;;;;6087698;23;20010;-94
2021/04/14 21:54:34;;;;;;;;;;;;;;;;;;;;;
2021/04/14 22:22:20;;;;;;;3.35;2.38;;;5.30;88.30;;;;;;5905197;24;20009;-93
2021/04/14 23:25:15;;;;;;;4.80;2.85;;;5.00;87.70;;;;;;5933452;24;20074;-93
2021/04/14 23:28:54;;;;;;;3.70;3.10;;;5.00;87.70;;;;;;5914149;24;20080;-93
2021/04/14 23:31:23;;;;;;;3.65;2.58;;;4.90;88.10;;;;;;6059873;23;20092;-94
2021/04/14 23:34:09;;;;;;;6.45;2.55;;;4.90;88.20;;;;;;6128971;23;20032;-93
2021/04/14 23:37:19;;;;;;;;;;;;;;;;;;;;;
2021/04/14 23:40:25;;;;;;;4.03;2.92;;;4.90;88.10;;;;;;6161911;23;20341;-95
2021/04/14 23:43:41;;;;;;;;;;;;;;;;;;;;;
